Time;durP1;ratioP1;P1;durP2;ratioP2;P2;SDS_P1;SDS_P2;PMS_P1;PMS_P2;Temp;Humidity;BMP_temperature;BMP_pressure;BME280_temperature;BME280_humidity;BME280_pressure;Samples;Min_cycle;Max_cycle;Signal;HPM_P1;HPM_P2
2022/11/04 00:01:39;;;;;;;15.68;7.65;;;8.10;99.90;;;;;;5006030;28;20030;-46
2022/11/04 00:04:05;;;;;;;15.88;7.85;;;8.10;99.90;;;;;;4989747;28;20037;-48
2022/11/04 00:06:30;;;;;;;17.63;8.13;;;8.00;99.90;;;;;;4984715;28;20039;-53
2022/11/04 00:08:57;;;;;;;16.00;8.57;;;8.00;99.90;;;;;;5010783;28;20038;-53
2022/11/04 00:14:09;;;;;;;14.45;7.30;;;8.00;99.90;;;;;;4972666;28;20571;-50
2022/11/04 00:19:18;;;;;;;13.00;7.40;;;7.90;99.90;;;;;;4973055;28;20093;-47
2022/11/04 00:30:05;;;;;;;24.20;9.73;;;7.70;99.90;;;;;;4984751;28;20049;-51
2022/11/04 00:35:16;;;;;;;18.90;8.02;;;7.60;99.90;;;;;;4987957;28;20390;-52
2022/11/04 00:37:43;;;;;;;9.45;5.90;;;7.50;99.90;;;;;;4992197;28;20026;-53
2022/11/04 00:40:11;;;;;;;10.63;6.75;;;7.40;99.90;;;;;;5008338;28;20333;-51
2022/11/04 00:42:37;;;;;;;13.88;7.72;;;7.40;99.90;;;;;;4991828;28;20490;-48
2022/11/04 00:45:03;;;;;;;13.73;7.88;;;7.30;99.90;;;;;;5008282;28;20036;-49
2022/11/04 00:47:28;;;;;;;16.45;7.07;;;7.30;99.90;;;;;;5010892;28;20042;-49
2022/11/04 00:49:54;;;;;;;13.70;7.43;;;7.20;99.90;;;;;;4995845;28;20057;-48
2022/11/04 00:52:20;;;;;;;14.55;7.95;;;7.20;99.90;;;;;;5010696;28;20513;-49
2022/11/04 00:54:45;;;;;;;15.57;8.52;;;7.10;99.90;;;;;;4994830;28;20474;-52
2022/11/04 00:57:11;;;;;;;16.35;7.40;;;7.10;99.90;;;;;;5010646;28;20084;-47
2022/11/04 00:59:38;;;;;;;16.85;8.32;;;7.10;99.90;;;;;;4993290;28;20025;-47
2022/11/04 01:02:04;;;;;;;14.35;7.90;;;7.00;99.90;;;;;;5010801;28;20029;-48
2022/11/04 01:04:30;;;;;;;13.82;7.70;;;7.00;99.90;;;;;;4989219;28;20583;-47
2022/11/04 01:06:55;;;;;;;15.60;7.82;;;7.00;99.90;;;;;;5009512;28;20396;-52
2022/11/04 01:09:21;;;;;;;15.18;8.02;;;7.00;99.90;;;;;;4990927;28;20054;-49
2022/11/04 01:11:46;;;;;;;14.50;8.18;;;6.90;99.90;;;;;;5009287;28;20053;-50
2022/11/04 01:14:12;;;;;;;21.70;10.18;;;6.90;99.90;;;;;;4989542;28;20038;-49
2022/11/04 01:16:37;;;;;;;18.65;9.18;;;6.90;99.90;;;;;;5009693;28;20438;-47
2022/11/04 01:19:04;;;;;;;17.17;8.95;;;6.90;99.90;;;;;;4991184;28;20518;-49
2022/11/04 01:21:29;;;;;;;13.98;8.25;;;6.90;99.90;;;;;;4989053;28;20038;-51
2022/11/04 01:23:55;;;;;;;14.23;8.18;;;6.80;99.90;;;;;;5009555;28;20164;-48
2022/11/04 01:26:23;;;;;;;16.73;8.32;;;6.90;99.90;;;;;;4989299;28;20088;-46
2022/11/04 01:28:50;;;;;;;22.20;9.27;;;6.80;99.90;;;;;;5009743;28;20060;-51
2022/11/04 01:31:20;;;;;;;19.45;9.60;;;6.80;99.90;;;;;;4989166;28;20078;-47
2022/11/04 01:33:46;;;;;;;15.38;8.82;;;6.80;99.90;;;;;;5009934;28;20092;-47
2022/11/04 01:36:12;;;;;;;16.50;8.55;;;6.80;99.90;;;;;;4988913;28;20045;-47
2022/11/04 01:38:38;;;;;;;20.27;9.35;;;6.80;99.90;;;;;;5003710;28;20077;-47
2022/11/04 01:41:06;;;;;;;23.90;10.48;;;6.90;99.90;;;;;;5003607;28;20509;-49
2022/11/04 01:44:03;;;;;;;15.50;8.30;;;6.90;99.90;;;;;;4989461;28;20026;-50
2022/11/04 01:46:45;;;;;;;23.63;10.80;;;6.90;99.90;;;;;;4983829;28;20039;-50
2022/11/04 01:49:34;;;;;;;20.38;9.52;;;6.90;99.90;;;;;;4969172;28;20173;-47
2022/11/04 01:52:14;;;;;;;17.38;9.00;;;6.90;99.90;;;;;;4992367;28;20026;-47
2022/11/04 01:54:42;;;;;;;17.67;10.20;;;6.90;99.90;;;;;;4976679;28;20133;-47
2022/11/04 01:57:12;;;;;;;15.48;8.85;;;7.00;99.90;;;;;;5009619;28;20548;-47
2022/11/04 01:59:39;;;;;;;15.82;9.40;;;7.00;99.90;;;;;;4976191;28;20028;-51
2022/11/04 02:02:06;;;;;;;17.83;8.93;;;7.00;99.90;;;;;;5009366;28;20473;-48
2022/11/04 02:04:31;;;;;;;21.67;9.98;;;7.00;99.90;;;;;;4984393;28;20034;-49
2022/11/04 02:07:04;;;;;;;19.08;9.10;;;7.00;99.90;;;;;;5008253;28;20109;-49
2022/11/04 02:09:32;;;;;;;20.48;10.60;;;7.10;99.90;;;;;;4990762;28;20508;-47
2022/11/04 02:14:43;;;;;;;19.40;10.73;;;7.10;99.90;;;;;;4976968;28;20095;-49
2022/11/04 02:17:17;;;;;;;25.33;12.43;;;7.10;99.90;;;;;;5009356;28;20033;-49
2022/11/04 02:20:20;;;;;;;20.88;10.50;;;7.20;99.90;;;;;;4992759;28;20037;-47
2022/11/04 02:23:25;;;;;;;18.38;10.02;;;7.20;99.90;;;;;;4989958;28;20034;-49
2022/11/04 02:26:17;;;;;;;15.98;9.50;;;7.20;99.90;;;;;;4981773;28;20034;-47
2022/11/04 02:29:08;;;;;;;16.33;9.07;;;7.20;99.90;;;;;;4970151;28;20368;-48
2022/11/04 02:31:57;;;;;;;15.05;7.93;;;7.20;99.90;;;;;;4986623;28;20052;-47
2022/11/04 02:34:35;;;;;;;13.55;7.82;;;7.20;99.90;;;;;;4971200;28;20031;-48
2022/11/04 02:37:49;;;;;;;14.05;8.65;;;7.20;99.90;;;;;;5009081;28;20036;-48
2022/11/04 02:40:41;;;;;;;18.50;9.55;;;7.10;99.90;;;;;;4954560;28;20129;-50
2022/11/04 02:43:26;;;;;;;19.55;10.15;;;7.20;99.90;;;;;;4947844;29;20459;-47
2022/11/04 02:46:14;;;;;;;22.33;9.90;;;7.20;99.90;;;;;;4983774;28;20038;-49
2022/11/04 02:48:46;;;;;;;22.00;10.43;;;7.10;99.90;;;;;;4969946;28;20118;-47
2022/11/04 02:51:19;;;;;;;14.23;9.45;;;7.10;99.90;;;;;;4990873;28;20540;-47
2022/11/04 02:53:54;;;;;;;19.92;10.25;;;7.10;99.90;;;;;;4984867;28;20496;-49
2022/11/04 02:56:21;;;;;;;19.40;8.90;;;7.10;99.90;;;;;;4989717;28;20053;-50
2022/11/04 02:58:56;;;;;;;19.50;10.00;;;7.00;99.90;;;;;;5008410;28;20401;-48
2022/11/04 03:01:25;;;;;;;21.63;10.68;;;7.00;99.90;;;;;;4985597;28;20105;-47
2022/11/04 03:04:01;;;;;;;23.27;9.55;;;7.00;99.90;;;;;;5008521;28;20110;-46
2022/11/04 03:06:28;;;;;;;;;;;7.00;99.90;;;;;;4980888;28;20030;-47
2022/11/04 03:08:54;;;;;;;17.27;9.77;;;6.90;99.90;;;;;;5007777;28;19921;-49
2022/11/04 03:11:26;;;;;;;20.77;10.25;;;6.90;99.90;;;;;;4987693;28;20027;-51
2022/11/04 03:14:06;;;;;;;20.92;11.55;;;6.90;99.90;;;;;;5008382;28;20022;-47
2022/11/04 03:16:41;;;;;;;22.92;11.20;;;6.90;99.90;;;;;;4986440;28;20089;-48
2022/11/04 03:19:06;;;;;;;19.90;10.18;;;6.90;99.90;;;;;;5008074;28;20029;-50
2022/11/04 03:21:35;;;;;;;20.50;11.52;;;6.90;99.90;;;;;;5006783;28;20409;-47
2022/11/04 03:24:02;;;;;;;17.88;10.57;;;6.90;99.90;;;;;;4988931;28;20027;-48
2022/11/04 03:26:48;;;;;;;21.77;11.93;;;6.90;99.90;;;;;;4987440;28;20102;-50
2022/11/04 03:29:29;;;;;;;26.83;12.30;;;6.90;99.90;;;;;;4968359;28;20093;-48
2022/11/04 03:32:23;;;;;;;21.55;12.52;;;6.90;99.90;;;;;;5008289;28;20129;-48
2022/11/04 03:34:49;;;;;;;26.25;12.98;;;6.90;99.90;;;;;;4977727;28;20371;-48
2022/11/04 03:37:14;;;;;;;25.42;12.38;;;7.00;99.90;;;;;;5006824;28;20117;-49
2022/11/04 03:39:40;;;;;;;20.73;11.60;;;7.00;99.90;;;;;;4993658;28;20133;-50
2022/11/04 03:42:21;;;;;;;22.90;12.27;;;7.00;99.90;;;;;;5010761;28;20026;-47
2022/11/04 03:44:51;;;;;;;22.70;11.20;;;7.00;99.90;;;;;;4981207;28;20025;-51
2022/11/04 03:47:18;;;;;;;19.95;10.52;;;7.00;99.90;;;;;;5011037;28;20050;-48
2022/11/04 03:49:46;;;;;;;19.98;11.75;;;7.00;99.90;;;;;;4995233;28;20018;-49
2022/11/04 03:52:13;;;;;;;20.42;11.45;;;7.00;99.90;;;;;;5011841;28;20470;-48
2022/11/04 03:54:39;;;;;;;20.02;11.73;;;7.00;99.90;;;;;;4994832;28;20028;-49
2022/11/04 03:57:42;;;;;;;23.13;11.48;;;7.00;99.90;;;;;;5011693;28;20018;-48
2022/11/04 04:00:14;;;;;;;19.75;11.48;;;7.00;99.90;;;;;;4986288;28;20216;-49
2022/11/04 04:03:02;;;;;;;21.38;11.98;;;6.90;99.90;;;;;;4972710;28;20033;-47
2022/11/04 04:05:41;;;;;;;20.73;11.88;;;6.90;99.90;;;;;;4985653;28;20030;-49
2022/11/04 04:08:18;;;;;;;18.42;11.20;;;6.90;99.90;;;;;;4972595;28;20104;-52
2022/11/04 04:11:02;;;;;;;18.02;11.23;;;6.90;99.90;;;;;;4983211;28;20048;-47
2022/11/04 04:13:57;;;;;;;17.83;10.23;;;6.90;99.90;;;;;;5010807;28;20402;-49
2022/11/04 04:16:31;;;;;;;20.95;10.35;;;6.90;99.90;;;;;;4987365;28;20084;-50
2022/11/04 04:19:03;;;;;;;17.27;8.85;;;6.90;99.90;;;;;;4972414;28;20026;-49
2022/11/04 04:21:45;;;;;;;24.60;11.40;;;6.90;99.90;;;;;;4989163;28;20034;-53
2022/11/04 04:29:46;;;;;;;25.80;9.35;;;7.00;99.90;;;;;;5009516;28;20040;-49
2022/11/04 04:32:13;;;;;;;18.90;10.68;;;7.00;99.90;;;;;;5011119;28;20244;-47
2022/11/04 04:34:38;;;;;;;21.52;11.05;;;7.00;99.90;;;;;;4993933;28;20060;-50
2022/11/04 04:37:17;;;;;;;21.92;11.23;;;7.00;99.90;;;;;;5011172;28;20166;-48
2022/11/04 04:45:26;;;;;;;18.65;10.63;;;7.10;99.90;;;;;;4988870;28;20048;-49
2022/11/04 04:47:51;;;;;;;19.55;11.10;;;7.10;99.90;;;;;;4971958;28;20447;-53
2022/11/04 04:50:19;;;;;;;24.75;12.32;;;7.10;99.90;;;;;;5006447;28;20030;-49
2022/11/04 04:52:48;;;;;;;23.52;12.35;;;7.10;99.90;;;;;;4991660;28;20043;-49
2022/11/04 04:55:14;;;;;;;18.02;10.70;;;7.10;99.90;;;;;;5008701;28;20025;-48
2022/11/04 04:57:40;;;;;;;24.95;11.65;;;7.10;99.90;;;;;;4991443;28;20034;-53
2022/11/04 05:00:07;;;;;;;21.23;10.63;;;7.20;99.90;;;;;;5008219;28;20072;-47
2022/11/04 05:02:33;;;;;;;21.27;11.40;;;7.20;99.90;;;;;;5010514;28;20406;-49
2022/11/04 05:05:00;;;;;;;20.55;12.57;;;7.20;99.90;;;;;;4993006;28;20026;-51
2022/11/04 05:07:25;;;;;;;28.23;13.73;;;7.20;99.90;;;;;;5011011;28;20037;-49
2022/11/04 05:09:51;;;;;;;22.88;12.10;;;7.20;99.90;;;;;;4994858;28;20729;-51
2022/11/04 05:12:17;;;;;;;23.63;13.32;;;7.20;99.90;;;;;;5010635;28;20041;-51
2022/11/04 05:14:42;;;;;;;23.63;11.88;;;7.20;99.90;;;;;;4993631;28;20041;-49
2022/11/04 05:17:08;;;;;;;22.90;11.07;;;7.20;99.90;;;;;;5010409;28;20120;-49
2022/11/04 05:19:34;;;;;;;18.00;10.68;;;7.20;99.90;;;;;;4992355;28;20117;-49
2022/11/04 05:21:59;;;;;;;18.75;10.40;;;7.20;99.90;;;;;;5010549;28;20636;-49
2022/11/04 05:24:25;;;;;;;23.60;11.48;;;7.20;99.90;;;;;;4991297;28;20027;-47
2022/11/04 05:26:50;;;;;;;20.05;11.38;;;7.20;99.90;;;;;;5010173;28;20037;-51
2022/11/04 05:29:16;;;;;;;18.83;11.85;;;7.30;99.90;;;;;;4990066;28;20395;-50
2022/11/04 05:31:41;;;;;;;19.92;10.63;;;7.30;99.90;;;;;;5010051;28;20383;-49
2022/11/04 05:34:10;;;;;;;18.42;10.35;;;7.30;99.90;;;;;;4991040;28;20168;-49
2022/11/04 05:36:36;;;;;;;20.80;10.60;;;7.30;99.90;;;;;;5007919;28;20076;-49
2022/11/04 05:39:02;;;;;;;19.42;10.73;;;7.30;99.90;;;;;;4997935;28;20193;-50
2022/11/04 05:41:27;;;;;;;18.40;10.15;;;7.30;99.90;;;;;;4989338;28;20505;-54
2022/11/04 05:43:55;;;;;;;17.40;9.38;;;7.30;99.90;;;;;;5007772;28;20034;-52
2022/11/04 05:46:21;;;;;;;21.63;11.07;;;7.30;99.90;;;;;;4988857;28;20077;-50
2022/11/04 05:48:47;;;;;;;18.45;10.10;;;7.30;99.90;;;;;;5009233;28;20021;-49
2022/11/04 05:51:14;;;;;;;23.10;10.38;;;7.30;99.90;;;;;;4988909;28;20031;-51
2022/11/04 05:53:39;;;;;;;17.55;10.63;;;7.30;99.90;;;;;;5009342;28;20034;-53
2022/11/04 05:56:05;;;;;;;19.88;10.30;;;7.30;99.90;;;;;;4988618;28;20093;-52
2022/11/04 05:58:31;;;;;;;20.45;10.57;;;7.30;99.90;;;;;;5007798;28;20038;-49
2022/11/04 06:01:23;;;;;;;18.13;10.75;;;7.30;99.90;;;;;;4988569;28;20030;-49
2022/11/04 06:03:49;;;;;;;16.65;10.43;;;7.30;99.90;;;;;;5009111;28;20246;-50
2022/11/04 06:06:14;;;;;;;21.60;10.77;;;7.30;99.90;;;;;;4982323;28;20833;-50
2022/11/04 06:08:40;;;;;;;18.42;10.38;;;7.30;99.90;;;;;;5008941;28;20038;-50
2022/11/04 06:11:06;;;;;;;19.30;10.50;;;7.30;99.90;;;;;;4988492;28;20467;-51
2022/11/04 06:13:32;;;;;;;15.20;8.88;;;7.30;99.90;;;;;;5008961;28;20025;-51
2022/11/04 06:15:57;;;;;;;16.52;9.45;;;7.30;99.90;;;;;;4988323;28;20042;-55
2022/11/04 06:18:23;;;;;;;15.48;9.02;;;7.20;99.90;;;;;;5008507;28;20022;-54
2022/11/04 06:20:48;;;;;;;18.25;10.07;;;7.20;99.90;;;;;;4988439;28;20072;-52
2022/11/04 06:23:14;;;;;;;18.90;10.50;;;7.20;99.90;;;;;;5008394;28;20375;-51
2022/11/04 06:25:39;;;;;;;16.38;8.88;;;7.20;99.90;;;;;;4988641;28;20081;-52
2022/11/04 06:28:05;;;;;;;17.05;9.43;;;7.10;99.90;;;;;;5008341;28;20026;-49
2022/11/04 06:30:30;;;;;;;20.90;9.95;;;7.10;99.90;;;;;;4988480;28;20026;-51
2022/11/04 06:32:56;;;;;;;17.88;9.00;;;7.10;99.90;;;;;;5008132;28;20124;-52
2022/11/04 06:35:21;;;;;;;19.98;10.15;;;7.10;99.90;;;;;;4997912;28;20473;-50
2022/11/04 06:37:47;;;;;;;19.75;9.70;;;7.10;99.90;;;;;;4989835;28;20391;-50
2022/11/04 06:40:12;;;;;;;20.75;10.15;;;7.20;99.90;;;;;;5006390;28;20050;-52
2022/11/04 06:42:38;;;;;;;20.70;10.40;;;7.20;99.90;;;;;;4989922;28;20046;-52
2022/11/04 06:45:04;;;;;;;19.50;10.30;;;7.20;99.90;;;;;;5006130;28;20052;-52
2022/11/04 06:47:29;;;;;;;17.38;10.60;;;7.20;99.90;;;;;;5007697;28;20030;-52
2022/11/04 06:49:54;;;;;;;17.92;10.77;;;7.30;99.90;;;;;;4993706;28;20130;-54
2022/11/04 06:52:20;;;;;;;20.45;9.48;;;7.30;99.90;;;;;;5009025;28;20394;-52
2022/11/04 06:54:46;;;;;;;19.80;10.07;;;7.30;99.90;;;;;;4992452;28;20057;-55
2022/11/04 06:57:12;;;;;;;19.52;10.20;;;7.30;99.90;;;;;;5008667;28;20099;-50
2022/11/04 06:59:38;;;;;;;17.95;10.20;;;7.40;99.90;;;;;;4991585;28;20529;-54
2022/11/04 07:02:03;;;;;;;17.75;10.80;;;7.40;99.90;;;;;;5008490;28;20302;-51
2022/11/04 07:04:29;;;;;;;18.80;8.95;;;7.40;99.90;;;;;;4986993;28;20030;-53
2022/11/04 07:06:54;;;;;;;19.52;10.38;;;7.50;99.90;;;;;;5008643;28;20398;-50
2022/11/04 07:09:20;;;;;;;22.15;10.43;;;7.50;99.90;;;;;;4989190;28;20026;-54
2022/11/04 07:11:46;;;;;;;15.80;9.68;;;7.50;99.90;;;;;;5007185;28;20469;-52
2022/11/04 07:14:12;;;;;;;18.48;10.45;;;7.60;99.90;;;;;;4987011;28;20042;-53
2022/11/04 07:16:38;;;;;;;20.88;10.65;;;7.60;99.90;;;;;;5008693;28;20026;-51
2022/11/04 07:19:03;;;;;;;14.77;9.38;;;7.70;99.90;;;;;;4989296;28;20053;-52
2022/11/04 07:21:29;;;;;;;21.92;10.02;;;7.70;99.90;;;;;;4987526;28;20502;-52
2022/11/04 07:23:55;;;;;;;18.38;9.30;;;7.70;99.90;;;;;;5006256;28;20459;-53
2022/11/04 07:26:20;;;;;;;18.13;9.65;;;7.80;99.90;;;;;;4987761;28;20038;-53
2022/11/04 07:28:46;;;;;;;20.33;10.50;;;7.80;99.90;;;;;;5007672;28;20063;-52
2022/11/04 07:31:12;;;;;;;14.95;8.98;;;7.90;99.90;;;;;;4987623;28;20070;-50
2022/11/04 07:33:38;;;;;;;16.52;8.55;;;7.90;99.90;;;;;;5007852;28;20038;-52
2022/11/04 07:36:05;;;;;;;18.90;9.65;;;8.00;99.90;;;;;;4987162;28;20085;-52
2022/11/04 07:38:31;;;;;;;16.48;9.55;;;8.00;99.90;;;;;;5002924;28;20058;-49
2022/11/04 07:40:57;;;;;;;15.60;9.25;;;8.10;99.90;;;;;;5001094;28;20033;-54
2022/11/04 07:43:23;;;;;;;19.27;10.07;;;8.10;99.90;;;;;;4989015;28;20023;-54
2022/11/04 07:45:58;;;;;;;14.63;9.75;;;8.20;99.90;;;;;;4992633;28;20034;-54
2022/11/04 07:48:24;;;;;;;22.00;10.32;;;8.30;99.90;;;;;;4969526;28;20030;-52
2022/11/04 07:50:54;;;;;;;15.90;9.55;;;8.40;99.90;;;;;;4991544;28;20510;-52
2022/11/04 07:53:19;;;;;;;16.50;9.52;;;8.40;99.90;;;;;;5007853;28;20033;-53
2022/11/04 07:55:48;;;;;;;15.82;8.93;;;8.50;99.90;;;;;;4986097;28;20022;-54
2022/11/04 07:58:13;;;;;;;17.83;9.68;;;8.60;99.90;;;;;;5007894;28;20026;-50
2022/11/04 08:00:39;;;;;;;14.80;9.13;;;8.70;99.90;;;;;;4987393;28;20088;-54
2022/11/04 08:03:04;;;;;;;19.48;11.57;;;8.80;99.90;;;;;;5007344;28;20406;-55
2022/11/04 08:05:30;;;;;;;22.33;12.20;;;8.90;99.90;;;;;;4994815;28;20030;-52
2022/11/04 08:07:56;;;;;;;17.20;10.48;;;9.10;99.90;;;;;;4989282;28;20046;-53
2022/11/04 08:10:22;;;;;;;23.75;12.48;;;9.20;99.90;;;;;;5005521;28;20034;-54
2022/11/04 08:12:47;;;;;;;20.15;11.13;;;9.30;99.90;;;;;;4989112;28;20046;-53
2022/11/04 08:15:13;;;;;;;20.38;11.98;;;9.40;99.90;;;;;;5005174;28;20037;-53
2022/11/04 08:17:39;;;;;;;17.50;10.18;;;9.50;99.90;;;;;;4988820;28;20065;-53
2022/11/04 08:20:04;;;;;;;16.98;10.05;;;9.60;99.90;;;;;;5005382;28;20050;-52
2022/11/04 08:22:30;;;;;;;23.45;11.05;;;9.70;99.90;;;;;;5007800;28;20022;-51
2022/11/04 08:24:55;;;;;;;17.58;10.07;;;9.70;99.90;;;;;;4994314;28;20088;-52
2022/11/04 08:27:22;;;;;;;18.67;10.68;;;9.70;99.90;;;;;;5011200;28;20040;-53
2022/11/04 08:29:47;;;;;;;18.88;11.38;;;9.80;99.90;;;;;;4995420;28;20134;-53
2022/11/04 08:32:13;;;;;;;19.70;11.13;;;9.80;99.90;;;;;;5011117;28;20025;-53
2022/11/04 08:34:39;;;;;;;16.58;9.82;;;9.80;99.90;;;;;;4994146;28;20034;-50
2022/11/04 08:37:04;;;;;;;16.60;9.18;;;9.90;99.90;;;;;;5011341;28;20589;-53
2022/11/04 08:39:30;;;;;;;16.95;9.77;;;9.90;99.90;;;;;;4992547;28;22783;-53
2022/11/04 08:41:55;;;;;;;16.08;9.90;;;9.90;99.90;;;;;;5011400;28;20030;-50
2022/11/04 08:44:21;;;;;;;18.95;10.68;;;10.00;99.90;;;;;;4991619;28;20236;-55
2022/11/04 08:46:47;;;;;;;15.48;9.80;;;10.00;99.90;;;;;;5011166;28;20022;-52
2022/11/04 08:49:13;;;;;;;15.15;9.43;;;10.00;99.90;;;;;;4990438;28;20117;-49
2022/11/04 08:51:42;;;;;;;16.48;9.82;;;10.00;99.90;;;;;;5011228;28;20575;-51
2022/11/04 08:54:08;;;;;;;12.95;8.57;;;10.10;99.90;;;;;;4991431;28;20026;-55
2022/11/04 08:56:36;;;;;;;14.55;9.75;;;10.10;99.90;;;;;;5008701;28;20042;-55
2022/11/04 08:59:03;;;;;;;14.35;8.73;;;10.20;99.90;;;;;;4991685;28;20375;-55
2022/11/04 09:01:31;;;;;;;14.13;9.18;;;10.20;99.90;;;;;;4989789;28;20029;-50
2022/11/04 09:03:56;;;;;;;13.82;9.10;;;10.20;99.90;;;;;;5010163;28;20041;-52
2022/11/04 09:06:26;;;;;;;13.73;8.57;;;10.30;99.90;;;;;;4985464;28;20486;-55
2022/11/04 09:08:55;;;;;;;20.80;9.98;;;10.30;99.90;;;;;;5010796;28;20389;-49
2022/11/04 09:11:21;;;;;;;15.00;9.02;;;10.40;99.90;;;;;;4989298;28;20037;-54
2022/11/04 09:13:47;;;;;;;22.83;10.98;;;10.50;99.90;;;;;;5009964;28;20289;-54
2022/11/04 09:16:14;;;;;;;20.65;11.57;;;10.50;99.90;;;;;;4989995;28;20030;-48
2022/11/04 09:18:40;;;;;;;21.65;11.63;;;10.60;99.90;;;;;;5009871;28;20033;-48
2022/11/04 09:21:07;;;;;;;20.42;11.75;;;10.70;99.90;;;;;;4989677;28;20406;-48
2022/11/04 09:23:33;;;;;;;18.48;10.23;;;10.80;99.90;;;;;;5009837;28;20038;-47
2022/11/04 09:26:08;;;;;;;16.60;9.85;;;10.90;99.90;;;;;;4989512;28;20034;-47
2022/11/04 09:28:33;;;;;;;19.17;10.32;;;11.00;99.90;;;;;;4971243;28;20085;-48
2022/11/04 09:31:03;;;;;;;14.35;9.88;;;11.10;99.90;;;;;;4991043;28;20026;-48
2022/11/04 09:33:28;;;;;;;13.73;8.57;;;11.20;99.90;;;;;;5010403;28;20018;-47
2022/11/04 09:35:55;;;;;;;15.00;8.95;;;11.30;99.90;;;;;;4988667;28;20038;-49
2022/11/04 09:38:21;;;;;;;16.02;9.23;;;11.40;99.90;;;;;;5005689;28;20066;-47
2022/11/04 09:40:49;;;;;;;12.95;7.80;;;11.50;99.90;;;;;;5000325;28;20065;-48
2022/11/04 09:43:59;;;;;;;14.65;8.73;;;11.60;99.90;;;;;;4990486;28;20469;-48
2022/11/04 09:46:26;;;;;;;14.68;9.38;;;11.80;99.90;;;;;;4987137;28;20030;-50
2022/11/04 09:48:55;;;;;;;13.05;9.02;;;11.90;99.90;;;;;;5009484;28;20038;-47
2022/11/04 09:51:25;;;;;;;13.27;7.70;;;11.90;99.90;;;;;;4988592;28;20030;-49
2022/11/04 09:53:57;;;;;;;13.63;8.45;;;12.10;99.90;;;;;;5009451;28;20490;-49
2022/11/04 09:56:31;;;;;;;16.52;9.23;;;12.20;99.90;;;;;;4985522;28;20388;-47
2022/11/04 09:58:57;;;;;;;14.55;8.15;;;12.30;99.90;;;;;;4970535;28;20030;-49
2022/11/04 10:01:55;;;;;;;11.98;8.77;;;12.40;99.90;;;;;;4988607;28;20026;-48
2022/11/04 10:04:59;;;;;;;10.70;8.15;;;12.50;99.90;;;;;;4971787;28;20042;-49
2022/11/04 10:07:49;;;;;;;8.93;7.25;;;12.50;99.90;;;;;;5009439;28;20075;-48
2022/11/04 10:10:30;;;;;;;14.88;8.13;;;12.40;99.90;;;;;;4986067;28;20117;-48
2022/11/04 10:13:11;;;;;;;11.45;7.20;;;12.30;99.90;;;;;;4970574;28;20038;-47
2022/11/04 10:15:56;;;;;;;12.18;8.57;;;12.20;99.90;;;;;;4991836;28;20026;-47
2022/11/04 10:18:33;;;;;;;16.92;8.68;;;12.20;99.90;;;;;;4970500;28;20067;-48
2022/11/04 10:21:08;;;;;;;15.95;8.10;;;12.20;99.90;;;;;;4982916;28;20030;-49
2022/11/04 10:23:44;;;;;;;13.20;7.63;;;12.10;99.90;;;;;;4970208;28;20031;-47
2022/11/04 10:26:27;;;;;;;13.95;7.80;;;12.10;99.90;;;;;;4984662;28;20376;-48
2022/11/04 10:28:59;;;;;;;14.10;6.90;;;12.10;99.90;;;;;;4970233;28;20042;-49
2022/11/04 10:31:25;;;;;;;9.75;6.78;;;12.10;99.90;;;;;;4986444;28;20034;-48
2022/11/04 10:33:55;;;;;;;10.65;6.13;;;12.10;99.90;;;;;;5008436;28;20401;-46
2022/11/04 10:36:21;;;;;;;6.88;5.32;;;12.10;99.90;;;;;;4987453;28;20122;-47
2022/11/04 10:38:56;;;;;;;10.85;5.78;;;12.10;99.90;;;;;;5001191;28;20054;-50
2022/11/04 10:41:36;;;;;;;11.52;5.60;;;12.10;99.90;;;;;;5005276;28;20525;-47
2022/11/04 10:44:24;;;;;;;9.77;5.72;;;12.10;99.90;;;;;;4970077;28;20113;-47
2022/11/04 10:47:08;;;;;;;7.03;5.05;;;12.10;99.90;;;;;;4969881;28;20189;-48
2022/11/04 10:50:00;;;;;;;7.18;4.70;;;12.10;99.90;;;;;;4973553;28;20030;-48
2022/11/04 10:52:26;;;;;;;7.72;5.28;;;12.10;99.90;;;;;;5008815;28;20510;-48
2022/11/04 10:54:51;;;;;;;8.93;5.78;;;12.10;99.90;;;;;;4993709;28;20045;-49
2022/11/04 10:57:23;;;;;;;6.57;5.22;;;12.10;99.90;;;;;;5008685;28;20489;-47
2022/11/04 10:59:58;;;;;;;9.80;6.15;;;12.10;99.90;;;;;;4978641;28;20359;-48
2022/11/04 11:02:35;;;;;;;7.85;5.20;;;12.10;99.90;;;;;;5008555;28;20113;-47
2022/11/04 11:05:22;;;;;;;8.05;4.80;;;12.10;99.90;;;;;;4989071;28;20072;-49
2022/11/04 11:07:50;;;;;;;;;;;12.00;99.90;;;;;;4970211;28;20023;-47
2022/11/04 11:10:28;;;;;;;5.97;4.55;;;12.00;99.90;;;;;;5006041;28;19949;-48
2022/11/04 11:13:06;;;;;;;5.90;4.28;;;12.00;99.90;;;;;;4969724;28;20034;-47
2022/11/04 11:15:34;;;;;;;4.82;3.65;;;12.10;99.90;;;;;;4989918;28;20117;-47
2022/11/04 11:18:27;;;;;;;8.85;4.82;;;12.10;99.90;;;;;;4988971;28;20034;-48
2022/11/04 11:21:22;;;;;;;6.45;4.30;;;12.20;99.90;;;;;;4981754;28;20026;-52
2022/11/04 11:23:50;;;;;;;5.82;4.28;;;12.20;99.90;;;;;;4960918;28;20034;-49
2022/11/04 11:26:27;;;;;;;6.78;4.93;;;12.20;99.90;;;;;;4989041;28;20030;-47
2022/11/04 11:28:56;;;;;;;5.70;4.40;;;12.20;99.90;;;;;;4969608;28;20113;-47
2022/11/04 11:31:25;;;;;;;6.10;3.75;;;12.20;99.90;;;;;;4988263;28;20026;-48
2022/11/04 11:33:59;;;;;;;5.43;4.00;;;12.10;99.90;;;;;;5008281;28;20057;-47
2022/11/04 11:36:29;;;;;;;6.53;4.00;;;12.10;99.90;;;;;;4986830;28;20042;-47
2022/11/04 11:39:00;;;;;;;4.90;4.13;;;12.10;99.90;;;;;;4999788;28;20129;-47
2022/11/04 11:41:33;;;;;;;3.90;3.35;;;12.00;99.90;;;;;;4987665;28;20693;-47
2022/11/04 11:44:22;;;;;;;7.00;4.15;;;12.00;99.90;;;;;;4969239;28;20184;-46
2022/11/04 11:46:54;;;;;;;5.63;4.00;;;12.00;99.90;;;;;;4969109;28;20578;-48
2022/11/04 11:49:32;;;;;;;6.30;4.40;;;12.00;99.90;;;;;;5005951;28;20109;-48
2022/11/04 11:52:30;;;;;;;7.07;4.90;;;12.00;99.90;;;;;;5008008;28;20064;-47
2022/11/04 11:55:17;;;;;;;5.32;4.43;;;12.00;99.90;;;;;;4980006;28;20026;-47
2022/11/04 11:58:19;;;;;;;5.28;4.10;;;12.00;99.90;;;;;;5008274;28;20049;-47
2022/11/04 12:00:58;;;;;;;6.78;4.65;;;11.90;99.90;;;;;;4989595;28;20509;-49
2022/11/04 12:03:36;;;;;;;7.78;4.95;;;11.90;99.90;;;;;;4973168;28;20031;-48
2022/11/04 12:06:16;;;;;;;6.75;4.72;;;11.90;99.90;;;;;;4980289;28;20026;-49
2022/11/04 12:08:50;;;;;;;9.50;4.88;;;11.90;99.90;;;;;;4972776;28;20098;-48
2022/11/04 12:11:40;;;;;;;7.57;4.35;;;11.90;99.90;;;;;;4992250;28;20058;-47
2022/11/04 12:14:15;;;;;;;8.68;5.00;;;11.90;99.90;;;;;;4972556;28;20027;-48
2022/11/04 12:17:05;;;;;;;7.35;5.00;;;11.90;99.90;;;;;;4972735;28;20491;-52
2022/11/04 12:19:46;;;;;;;8.43;5.50;;;11.80;99.90;;;;;;4976493;28;20042;-50
2022/11/04 12:22:26;;;;;;;6.47;4.78;;;11.80;99.90;;;;;;5011562;28;20026;-52
2022/11/04 12:25:09;;;;;;;8.73;5.50;;;11.80;99.90;;;;;;4981690;28;20030;-49
2022/11/04 12:28:09;;;;;;;7.70;5.47;;;11.70;99.90;;;;;;5011290;28;20040;-48
2022/11/04 12:30:57;;;;;;;8.13;5.63;;;11.70;99.90;;;;;;4993291;28;20026;-51
2022/11/04 12:33:54;;;;;;;8.00;5.10;;;11.70;99.90;;;;;;4972291;28;20039;-48
2022/11/04 12:36:33;;;;;;;10.35;6.15;;;11.60;99.90;;;;;;4987864;28;20117;-49
2022/11/04 12:39:27;;;;;;;9.30;6.28;;;11.60;99.90;;;;;;4988446;28;20049;-48
2022/11/04 12:42:16;;;;;;;7.07;5.57;;;11.60;99.90;;;;;;4971426;28;20046;-50
2022/11/04 12:45:04;;;;;;;7.78;5.53;;;11.60;99.90;;;;;;5009144;28;20040;-48
2022/11/04 12:47:37;;;;;;;9.05;6.50;;;11.60;99.90;;;;;;5010913;28;20036;-49
2022/11/04 12:50:16;;;;;;;8.88;6.55;;;11.50;99.90;;;;;;4984080;28;20038;-48
2022/11/04 12:53:05;;;;;;;8.48;5.70;;;11.50;99.90;;;;;;4972145;28;20901;-48
2022/11/04 12:55:34;;;;;;;9.38;6.22;;;11.50;99.90;;;;;;4991916;28;20029;-47
2022/11/04 12:58:15;;;;;;;8.50;5.57;;;11.50;99.90;;;;;;4991182;28;20077;-47
2022/11/04 13:00:44;;;;;;;8.65;5.68;;;11.50;99.90;;;;;;4994468;28;20026;-47
2022/11/04 13:03:19;;;;;;;8.13;6.07;;;11.40;99.90;;;;;;4991273;28;20045;-49
2022/11/04 13:05:55;;;;;;;9.88;5.90;;;11.50;99.90;;;;;;4988245;28;20037;-49
2022/11/04 13:08:27;;;;;;;7.80;5.45;;;11.40;99.90;;;;;;4971874;28;20031;-48
2022/11/04 13:11:23;;;;;;;9.43;5.85;;;11.40;99.90;;;;;;4983428;28;20034;-50
2022/11/04 13:13:58;;;;;;;6.80;5.03;;;11.40;99.90;;;;;;4970252;28;20029;-48
2022/11/04 13:16:24;;;;;;;10.55;6.13;;;11.30;99.90;;;;;;4987514;28;20402;-54
2022/11/04 13:18:51;;;;;;;10.18;6.43;;;11.30;99.90;;;;;;5009992;28;20034;-53
2022/11/04 13:21:21;;;;;;;11.48;8.15;;;11.30;99.90;;;;;;4989533;28;20030;-50
2022/11/04 13:23:53;;;;;;;8.63;6.07;;;11.30;99.90;;;;;;4971283;28;20059;-51
2022/11/04 13:26:18;;;;;;;8.00;6.47;;;11.30;99.90;;;;;;4990722;28;20053;-50
2022/11/04 13:28:54;;;;;;;9.45;6.88;;;11.20;99.90;;;;;;5009690;28;20034;-51
2022/11/04 13:31:30;;;;;;;;;;;11.20;99.90;;;;;;4987437;28;20093;-54
2022/11/04 13:34:09;;;;;;;9.75;6.82;;;11.20;99.90;;;;;;5009770;28;20283;-49
2022/11/04 13:36:44;;;;;;;7.70;5.80;;;11.20;99.90;;;;;;5008244;28;20034;-51
2022/11/04 13:39:15;;;;;;;8.00;6.85;;;11.10;99.90;;;;;;4989352;28;20049;-50